Latest Weather Observations for King Island Airport

IDT60801

Issued at 1:05 pm EDT Tuesday 21 October 2014 (issued every 30 minutes, with the page automatically refreshed every 10 minutes)

About weather observations | Map of weather stations | Latest weather observations for TAS | Other Formats
Station Details ID: 098017 Name: KING ISLAND AIRPORT Lat: -39.88 Lon: 143.88 Height: 37.0 m
Data from the previous 72 hours. | See also: Recent months at King Island Airport
Date/Time
EDT
Temp
°C
App
Temp
°C
Dew
Point
Rel
Hum
%
Delta-T
°C
Wind Press
QNH
hPa
Press
MSL
hPa
Rain
since 9 am
mm
Dir
 
Spd
km/h
Gust
km/h
Spd
kts
Gust
kts
21/01:00pm 16.8 8.6 10.4 66 3.4 E 44 59 24 32 1027.2 1027.2 0.0
21/12:34pm 16.2 7.8 9.8 66 3.3 E 44 63 24 34 1027.4 1027.4 0.0
21/12:30pm 16.7 8.5 10.3 66 3.4 E 44 57 24 31 1027.4 1027.4 0.0
21/12:03pm 16.2 7.9 10.1 67 3.2 ENE 44 63 24 34 1027.6 1027.6 0.0
21/12:00pm 16.4 7.9 10.5 68 3.1 E 46 63 25 34 1027.7 1027.7 0.0
21/11:30am 16.0 7.0 10.3 69 3.0 E 48 63 26 34 1027.8 1027.8 0.0
21/11:00am 15.9 7.3 10.2 69 3.0 E 46 69 25 37 1028.1 1028.1 0.0
21/10:30am 15.1 7.7 9.7 70 2.8 E 39 59 21 32 1028.7 1028.7 0.0
21/10:00am 15.1 7.0 9.9 71 2.7 E 43 61 23 33 1028.7 1028.7 0.0
21/09:30am 14.6 5.8 9.4 71 2.7 E 46 70 25 38 1028.3 1028.3 0.0
21/09:00am 14.2 5.8 9.0 71 2.6 E 43 63 23 34 1028.2 1028.2 0.0
21/08:33am 13.8 5.3 8.6 71 2.6 E 43 61 23 33 1028.2 1028.2 0.0
21/08:30am 13.8 5.7 8.6 71 2.6 E 41 57 22 31 1028.2 1028.2 0.0
21/08:00am 13.1 5.3 8.2 72 2.4 E 39 57 21 31 1028.3 1028.3 0.0
21/07:41am 12.8 5.7 7.9 72 2.4 ENE 35 59 19 32 1028.6 1028.6 0.0
21/07:30am 12.7 6.0 8.2 74 2.2 ENE 33 50 18 27 1028.6 1028.6 0.0
21/07:07am 12.5 5.8 8.0 74 2.2 ENE 33 54 18 29 1028.6 1028.6 0.0
21/07:00am 12.4 5.6 7.9 74 2.2 ENE 33 48 18 26 1028.5 1028.5 0.0
21/06:30am 12.1 4.9 7.8 75 2.1 E 35 48 19 26 1028.2 1028.2 0.0
21/06:00am 11.9 3.5 7.4 74 2.2 ENE 41 59 22 32 1027.8 1027.8 0.0
21/05:44am 11.7 4.1 7.4 75 2.1 E 37 57 20 31 1027.7 1027.7 0.0
21/05:30am 11.4 4.7 7.3 76 2.0 E 32 48 17 26 1027.8 1027.8 0.0
21/05:00am 11.2 4.4 7.1 76 1.9 ENE 32 44 17 24 1028.1 1028.1 0.0
21/04:30am 11.4 4.5 7.1 75 2.1 ENE 33 44 18 24 1028.1 1028.1 0.0
21/04:00am 11.3 4.9 7.0 75 2.0 ENE 30 48 16 26 1028.4 1028.4 0.0
21/03:52am 11.2 4.8 6.9 75 2.0 ENE 30 48 16 26 1028.4 1028.4 0.0
21/03:30am 11.3 3.4 6.4 72 2.3 ENE 37 52 20 28 1028.6 1028.6 0.0
21/03:05am 11.5 4.7 7.0 74 2.2 ENE 32 50 17 27 1028.9 1028.9 0.0
21/03:00am 11.3 4.9 6.8 74 2.1 E 30 44 16 24 1029.0 1029.0 0.0
21/02:30am 11.4 4.6 6.9 74 2.1 E 32 44 17 24 1029.2 1029.2 0.0
21/02:00am 11.4 5.0 7.1 75 2.0 E 30 39 16 21 1029.4 1029.4 0.0
21/01:30am 11.3 5.7 7.0 75 2.1 E 26 37 14 20 1030.2 1030.3 0.0
21/01:00am 11.1 5.9 7.4 78 1.8 E 24 33 13 18 1030.7 1030.8 0.0
21/12:30am 11.2 6.0 7.1 76 2.0 E 24 33 13 18 1031.0 1031.1 0.0
21/12:00am 11.2 6.3 7.1 76 1.9 E 22 33 12 18 1031.1 1031.2 0.0
 
Date/Time
EDT
Temp
°C
App
Temp
°C
Dew
Point
Rel
Hum
%
Delta-T
°C
Wind Press
QNH
hPa
Press
MSL
hPa
Rain
since 9 am
mm
Dir
 
Spd
km/h
Gust
km/h
Spd
kts
Gust
kts
20/11:30pm 11.1 5.0 6.8 75 2.0 E 28 37 15 20 1031.3 1031.4 0.0
20/11:00pm 10.9 5.7 7.2 78 1.8 E 24 32 13 17 1031.3 1031.4 0.0
20/10:30pm 10.6 5.0 7.1 79 1.7 E 26 39 14 21 1031.5 1031.6 0.0
20/10:00pm 10.2 5.3 6.9 80 1.5 E 22 32 12 17 1031.7 1031.8 0.0
20/09:30pm 9.6 5.0 6.3 80 1.5 E 20 28 11 15 1032.0 1032.1 0.0
20/09:00pm 8.9 4.6 5.3 78 1.6 E 17 22 9 12 1032.0 1032.1 0.0
20/08:30pm 9.1 4.8 5.1 76 1.8 E 17 19 9 10 1031.7 1031.8 0.0
20/08:00pm 9.5 5.2 5.1 74 2.0 E 17 22 9 12 1031.6 1031.7 0.0
20/07:30pm 10.4 4.8 5.4 71 2.3 E 24 30 13 16 1031.4 1031.5 0.0
20/07:00pm 11.1 4.3 5.0 66 2.8 E 30 39 16 21 1031.4 1031.5 0.0
20/06:30pm 11.8 4.6 5.0 63 3.1 E 32 39 17 21 1031.5 1031.6 0.0
20/06:00pm 12.3 5.1 5.0 61 3.3 E 32 43 17 23 1031.5 1031.6 0.0
20/05:30pm 13.0 6.7 5.7 61 3.4 E 28 37 15 20 1031.9 1032.0 0.0
20/05:00pm 12.6 5.4 4.8 59 3.6 E 32 39 17 21 1032.0 1032.1 0.0
20/04:30pm 12.7 5.6 3.6 54 4.1 E 30 37 16 20 1032.1 1032.2 0.0
20/04:00pm 12.6 5.4 3.0 52 4.2 ESE 30 41 16 22 1032.2 1032.3 0.0
20/03:30pm 13.1 6.2 4.5 56 3.9 ESE 30 39 16 21 1032.2 1032.3 0.0
20/03:00pm 13.2 6.3 4.4 55 4.0 E 30 37 16 20 1032.3 1032.4 0.0
20/02:30pm 13.6 6.9 3.9 52 4.4 E 28 39 15 21 1032.5 1032.6 0.0
20/02:00pm 13.5 6.2 4.4 54 4.1 E 32 41 17 22 1032.7 1032.8 0.0
20/01:30pm 14.1 7.4 5.5 56 4.1 E 30 39 16 21 1032.7 1032.8 0.0
20/01:00pm 13.5 7.4 4.9 56 4.0 E 26 35 14 19 1032.9 1033.0 0.0
20/12:30pm 13.4 6.9 4.6 55 4.1 E 28 37 15 20 1033.2 1033.3 0.0
20/12:00pm 13.1 6.5 4.3 55 4.0 E 28 35 15 19 1033.4 1033.5 0.0
20/11:30am 12.5 6.9 3.5 54 4.0 SE 22 35 12 19 1033.7 1033.8 0.0
20/11:00am 12.5 6.0 2.9 52 4.2 ESE 26 35 14 19 1033.8 1033.9 0.0
20/10:30am 12.0 4.5 1.3 48 4.5 SE 30 41 16 22 1033.8 1033.9 0.0
20/10:00am 11.8 4.4 2.0 51 4.2 ESE 30 39 16 21 1033.6 1033.7 0.0
20/09:30am 11.5 4.2 2.5 54 3.9 ESE 30 37 16 20 1033.7 1033.8 0.0
20/09:00am 10.8 3.9 2.6 57 3.5 ESE 28 37 15 20 1033.5 1033.6 0.2
20/08:30am 10.3 4.7 3.3 62 3.0 ESE 22 33 12 18 1033.3 1033.4 0.2
20/08:00am 9.9 5.4 4.1 67 2.5 SE 17 24 9 13 1033.1 1033.2 0.2
20/07:30am 8.4 5.0 4.2 75 1.8 SE 11 17 6 9 1032.8 1032.9 0.2
20/07:00am 7.0 3.9 3.8 80 1.4 SE 9 11 5 6 1032.4 1032.5 0.2
20/06:30am 7.0 3.0 3.1 76 1.6 SSE 13 15 7 8 1032.0 1032.1 0.2
20/06:00am 5.0 1.2 1.5 78 1.4 SSE 11 13 6 7 1031.3 1031.4 0.2
20/05:30am 5.2 1.1 2.0 80 1.3 SSE 13 15 7 8 1030.7 1030.8 0.2
20/05:00am 3.9 0.4 1.3 83 1.0 SE 9 13 5 7 1030.6 1030.7 0.2
20/04:30am 5.1 3.5 2.3 82 1.1 CALM 0 6 0 3 1030.8 1030.9 0.2
20/04:00am 6.3 3.1 3.1 80 1.3 SSE 9 9 5 5 1030.7 1030.8 0.2
20/03:30am 6.7 4.0 3.7 81 1.3 SSE 7 11 4 6 1030.4 1030.5 0.2
20/03:00am 5.6 2.4 2.9 83 1.1 SE 9 13 5 7 1030.2 1030.3 0.2
20/02:30am 5.8 2.6 3.0 82 1.2 SSE 9 13 5 7 1030.2 1030.3 0.2
20/02:00am 6.0 2.4 3.0 81 1.2 SSE 11 13 6 7 1030.3 1030.4 0.2
20/01:30am 6.2 2.7 3.4 82 1.2 SSE 11 15 6 8 1030.4 1030.5 0.2
20/01:00am 6.9 3.3 3.0 76 1.6 SSE 11 17 6 9 1030.5 1030.6 0.2
20/12:30am 8.1 4.0 4.1 76 1.7 S 15 24 8 13 1030.5 1030.6 0.2
20/12:00am 8.6 4.6 5.0 78 1.6 S 15 20 8 11 1029.9 1029.9 0.2
 
Date/Time
EDT
Temp
°C
App
Temp
°C
Dew
Point
Rel
Hum
%
Delta-T
°C
Wind Press
QNH
hPa
Press
MSL
hPa
Rain
since 9 am
mm
Dir
 
Spd
km/h
Gust
km/h
Spd
kts
Gust
kts
19/11:30pm 8.7 5.5 5.1 78 1.6 S 11 19 6 10 1029.5 1029.5 0.2
19/11:00pm 8.7 5.1 4.9 77 1.7 S 13 17 7 9 1029.6 1029.6 0.2
19/10:30pm 10.0 5.3 5.2 72 2.2 S 19 28 10 15 1029.1 1029.1 0.2
19/10:00pm 10.1 5.8 5.1 71 2.2 S 17 32 9 17 1028.9 1028.9 0.2
19/09:30pm 10.2 4.8 6.5 78 1.7 S 24 35 13 19 1028.5 1028.5 0.2
19/09:00pm 9.8 4.3 7.4 85 1.1 SSW 26 39 14 21 1027.9 1027.9 0.2
19/08:39pm 11.1 4.2 7.4 78 1.8 SSW 33 56 18 30 1027.4 1027.4 0.2
19/08:30pm 11.0 4.2 6.9 76 1.9 SSW 32 41 17 22 1027.1 1027.1 0.2
19/08:00pm 11.1 4.4 7.2 77 1.9 SSW 32 43 17 23 1026.1 1026.1 0.2
19/07:30pm 10.8 4.0 7.5 80 1.6 SSW 33 48 18 26 1025.7 1025.7 0.0
19/07:08pm 10.3 3.5 7.9 85 1.2 SSW 33 52 18 28 1025.4 1025.4 0.0
19/07:00pm 10.3 3.8 8.2 87 1.0 SSW 32 48 17 26 1025.2 1025.2 0.0
19/06:53pm 10.0 3.9 8.1 88 0.9 SSW 30 48 16 26 1024.5 1024.5 0.0
19/06:36pm 9.8 3.2 7.9 88 0.9 SSW 32 41 17 22 1024.4 1024.4 0.0
19/06:30pm 10.1 4.0 8.2 88 0.9 SSW 30 44 16 24 1024.1 1024.1 0.0
19/06:23pm 10.4 3.4 8.3 87 1.0 SSW 35 46 19 25 1024.2 1024.2 0.0
19/06:00pm 10.4 3.4 8.3 87 1.0 SSW 35 48 19 26 1024.1 1024.1 0.0
19/05:30pm 11.1 4.2 8.7 85 1.2 SSW 35 48 19 26 1023.5 1023.5 0.0
19/05:27pm 11.2 3.8 8.4 83 1.4 SSW 37 48 20 26 1023.3 1023.3 0.0
19/05:04pm 12.1 6.0 9.7 85 1.2 S 32 43 17 23 1022.7 1022.7 0.0
19/05:00pm 12.4 6.3 9.8 84 1.3 SSW 32 43 17 23 1022.2 1022.2 0.0
19/04:30pm 13.6 6.2 10.0 79 1.9 SSW 39 52 21 28 1022.6 1022.6 0.0
19/04:07pm 13.6 7.5 10.6 82 1.6 SW 33 44 18 24 1022.1 1022.1 0.0
19/04:00pm 13.9 8.5 10.9 82 1.6 SW 30 37 16 20 1022.0 1022.0 0.0
19/03:55pm 14.1 8.8 11.3 83 1.5 SW 30 39 16 21 1021.8 1021.8 0.0
19/03:46pm 14.1 9.2 11.3 83 1.5 SW 28 37 15 20 1021.4 1021.4 0.0
19/03:35pm 14.6 9.4 11.6 82 1.6 SW 30 37 16 20 1021.4 1021.4 0.0
19/03:30pm 14.6 9.8 11.7 83 1.6 SW 28 33 15 18 1020.7 1020.7 0.0
19/03:00pm 14.3 9.0 11.1 81 1.7 SW 30 35 16 19 1021.1 1021.1 0.0
19/02:30pm 14.9 12.1 11.3 79 1.9 SSW 17 20 9 11 1020.3 1020.3 0.0
19/02:00pm 15.0 9.7 11.2 78 2.0 SW 30 39 16 21 1020.8 1020.8 0.0
19/01:36pm 15.6 10.5 11.8 78 2.1 SW 30 39 16 21 1020.5 1020.5 0.0
19/01:30pm 15.6 10.6 12.2 80 1.9 SW 30 41 16 22 1020.6 1020.6 0.0
19/01:12pm 14.8 10.0 11.6 81 1.7 SW 28 37 15 20 1020.8 1020.8 0.0
19/01:00pm 14.9 11.3 11.7 81 1.7 SW 22 33 12 18 1020.6 1020.6 0.0
19/12:46pm 14.8 10.9 12.1 84 1.5 SW 24 35 13 19 1020.7 1020.7 0.0
19/12:30pm 14.4 10.3 11.4 82 1.6 WSW 24 32 13 17 1020.8 1020.8 0.0
19/12:16pm 14.9 10.5 11.7 81 1.7 SW 26 33 14 18 1020.8 1020.8 0.0
19/12:00pm 14.8 10.6 11.2 79 1.9 WSW 24 32 13 17 1020.8 1020.8 0.0
19/11:30am 14.9 11.9 11.9 82 1.6 WSW 19 24 10 13 1020.5 1020.5 0.0
19/11:00am 14.1 11.4 11.6 85 1.3 WSW 17 24 9 13 1020.6 1020.6 0.0
19/10:30am 14.1 11.7 11.3 83 1.5 WSW 15 20 8 11 1020.5 1020.5 0.0
19/10:00am 14.1 11.4 11.6 85 1.3 WSW 17 24 9 13 1020.2 1020.2 0.0
19/09:30am 14.0 11.4 11.9 87 1.1 WSW 17 22 9 12 1020.2 1020.2 0.0
19/09:00am 13.9 11.3 11.9 88 1.1 WSW 17 19 9 10 1020.0 1020.0 0.4
19/08:49am 13.8 11.9 11.8 88 1.1 W 13 15 7 8 1019.8 1019.8 0.4
19/08:30am 13.4 11.8 11.6 89 1.0 W 11 17 6 9 1019.7 1019.7 0.4
19/08:27am 13.4 11.4 11.6 89 1.0 W 13 17 7 9 1019.6 1019.6 0.4
19/08:00am 13.3 11.7 11.7 90 0.9 WSW 11 17 6 9 1019.5 1019.5 0.4
19/07:30am 12.9 11.2 11.3 90 0.8 W 11 15 6 8 1019.2 1019.2 0.4
19/07:00am 13.0 10.6 11.4 90 0.8 W 15 22 8 12 1019.4 1019.4 0.4
19/06:52am 12.9 10.1 11.3 90 0.8 W 17 22 9 12 1019.3 1019.3 0.4
19/06:44am 12.7 10.6 11.1 90 0.8 W 13 17 7 9 1019.1 1019.1 0.4
19/06:30am 12.9 10.4 11.1 89 0.9 W 15 22 8 12 1019.0 1019.0 0.4
19/06:00am 12.9 9.7 11.3 90 0.8 W 19 26 10 14 1018.9 1018.9 0.4
19/05:30am 13.2 10.2 11.8 91 0.7 W 19 24 10 13 1018.5 1018.5 0.4
19/05:00am 13.0 9.9 11.7 92 0.7 W 19 26 10 14 1018.6 1018.6 0.4
19/04:30am 13.2 10.7 12.3 94 0.5 W 17 26 9 14 1018.5 1018.5 0.4
19/04:00am 13.1 10.2 12.3 95 0.4 W 19 28 10 15 1018.5 1018.5 0.4
19/03:30am 13.5 11.1 12.6 94 0.5 W 17 26 9 14 1018.7 1018.7 0.4
19/03:00am 13.8 11.0 12.7 93 0.6 W 19 28 10 15 1018.8 1018.8 0.4
19/02:30am 14.3 11.9 12.7 90 0.9 W 17 26 9 14 1018.9 1018.9 0.4
19/02:25am 14.2 12.2 12.6 90 0.9 WNW 15 20 8 11 1018.9 1018.9 0.4
19/02:00am 13.9 11.6 11.9 88 1.1 WNW 15 17 8 9 1018.9 1018.9 0.4
19/01:30am 14.1 11.7 11.4 84 1.4 WNW 15 19 8 10 1018.9 1018.9 0.4
19/01:00am 14.3 12.0 10.5 78 2.0 NNW 13 17 7 9 1018.7 1018.7 0.4
19/12:30am 14.9 11.9 10.5 75 2.3 N 17 20 9 11 1018.2 1018.2 0.4
19/12:00am 15.7 12.1 10.7 72 2.6 NNW 20 28 11 15 1018.5 1018.5 0.4
 
Date/Time
EDT
Temp
°C
App
Temp
°C
Dew
Point
Rel
Hum
%
Delta-T
°C
Wind Press
QNH
hPa
Press
MSL
hPa
Rain
since 9 am
mm
Dir
 
Spd
km/h
Gust
km/h
Spd
kts
Gust
kts
18/11:30pm 16.5 12.1 10.4 67 3.2 N 24 32 13 17 1018.5 1018.5 0.4
18/11:00pm 16.8 10.6 10.2 65 3.5 NNW 33 48 18 26 1018.9 1018.9 0.4
18/10:46pm 17.8 10.7 9.4 58 4.4 NW 37 56 20 30 1018.3 1018.3 0.4
18/10:44pm 17.4 10.1 10.3 63 3.8 WNW 39 56 21 30 1018.9 1018.9 0.4
18/10:30pm 19.3 13.4 7.4 46 6.1 N 28 37 15 20 1017.8 1017.8 0.4
18/10:00pm 18.6 13.6 8.0 50 5.4 NNE 24 32 13 17 1018.0 1018.0 0.4
18/09:30pm 18.4 12.4 8.7 53 5.0 NNE 30 39 16 21 1017.8 1017.8 0.4
18/09:00pm 17.5 11.9 8.9 57 4.4 NNE 28 33 15 18 1018.0 1018.0 0.4
18/08:30pm 16.7 11.3 9.6 63 3.7 NNE 28 35 15 19 1017.8 1017.8 0.4
18/08:00pm 16.1 11.3 10.2 68 3.1 NE 26 33 14 18 1018.1 1018.1 0.4
18/07:30pm 16.2 12.9 10.9 71 2.8 NE 19 22 10 12 1018.8 1018.8 0.4
18/07:00pm 16.5 13.3 11.2 71 2.8 NE 19 26 10 14 1019.1 1019.1 0.4
18/06:30pm 16.5 13.2 11.0 70 3.0 NE 19 26 10 14 1019.5 1019.5 0.4
18/06:00pm 16.8 14.0 11.5 71 2.9 NE 17 22 9 12 1019.9 1019.9 0.4
18/05:30pm 16.2 13.4 11.4 73 2.6 NE 17 26 9 14 1020.1 1020.1 0.4
18/05:00pm 16.2 13.8 11.4 73 2.6 NE 15 22 8 12 1020.3 1020.3 0.4
18/04:30pm 16.7 13.3 11.2 70 3.0 NE 20 28 11 15 1020.6 1020.6 0.4
18/04:00pm 16.2 13.4 11.2 72 2.7 NE 17 20 9 11 1020.7 1020.7 0.4
18/03:30pm 15.9 12.5 11.1 73 2.6 NE 20 28 11 15 1020.9 1020.9 0.4
18/03:00pm 15.8 12.3 12.2 79 2.0 NE 22 28 12 15 1021.0 1021.0 0.4
18/02:30pm 15.6 11.9 12.7 83 1.6 NE 24 35 13 19 1021.1 1021.1 0.4
18/02:00pm 15.1 11.6 13.3 89 1.0 NE 24 30 13 16 1021.6 1021.6 0.4
18/01:30pm 14.4 11.9 12.4 88 1.1 ENE 17 22 9 12 1022.4 1022.4 0.4

Other Formats:

Comma delimited format used in spreadsheet applications
http://www.bom.gov.au/fwo/IDT60801/IDT60801.94850.axf

JavaScript Object Notation format (JSON) in row-major order
http://www.bom.gov.au/fwo/IDT60801/IDT60801.94850.json